createdAt,value
2019-06-10T00:00:50.816Z,77.59
2019-06-10T00:03:25.634Z,77.60
2019-06-10T00:06:00.865Z,77.62
2019-06-10T00:08:32.917Z,77.70
2019-06-10T00:11:05.072Z,77.83
2019-06-10T00:13:38.103Z,77.94
2019-06-10T00:16:21.614Z,78.04
2019-06-10T00:18:51.321Z,78.06
2019-06-10T00:21:25.382Z,78.07
2019-06-10T00:23:54.912Z,78.12
2019-06-10T00:26:30.825Z,78.16
2019-06-10T00:29:23.767Z,78.22
2019-06-10T00:32:06.523Z,78.24
2019-06-10T00:34:35.805Z,78.32
2019-06-10T00:37:14.338Z,78.45
2019-06-10T00:39:46.578Z,78.61
2019-06-10T00:42:21.433Z,78.72
2019-06-10T00:44:54.108Z,78.74
2019-06-10T00:47:27.454Z,78.76
2019-06-10T00:50:05.203Z,78.85
2019-06-10T00:52:38.114Z,78.85
2019-06-10T00:55:11.804Z,78.82
2019-06-10T00:57:57.861Z,78.79
2019-06-10T01:00:35.483Z,78.87
2019-06-10T01:03:15.310Z,78.99
2019-06-10T01:06:03.452Z,78.92
2019-06-10T01:08:40.572Z,78.88
2019-06-10T01:11:31.007Z,78.96
2019-06-10T01:14:01.554Z,79.00
2019-06-10T01:16:54.386Z,79.10
2019-06-10T01:19:50.901Z,79.20
2019-06-10T01:22:31.579Z,79.04
2019-06-10T01:25:05.523Z,79.00
2019-06-10T01:27:40.905Z,79.13
2019-06-10T01:30:23.518Z,79.24
2019-06-10T01:33:08.262Z,79.35
2019-06-10T01:35:48.284Z,79.40
2019-06-10T01:38:24.033Z,79.41
2019-06-10T01:41:01.705Z,79.43
2019-06-10T01:43:40.669Z,79.44
2019-06-10T01:46:14.143Z,79.43
2019-06-10T01:48:48.307Z,79.41
2019-06-10T01:51:31.538Z,79.49
2019-06-10T01:54:15.286Z,79.53
2019-06-10T01:56:51.012Z,79.52
2019-06-10T01:59:25.346Z,79.53
2019-06-10T02:02:02.883Z,79.51
2019-06-10T02:07:24.518Z,79.61
2019-06-10T02:10:01.145Z,79.73
2019-06-10T02:12:32.038Z,79.84
2019-06-10T02:15:03.409Z,80.03
2019-06-10T02:17:33.741Z,80.12
2019-06-10T02:20:04.275Z,80.23
2019-06-10T02:22:41.079Z,80.35
2019-06-10T02:25:15.121Z,80.37
2019-06-10T02:27:47.295Z,80.42
2019-06-10T02:30:50.519Z,80.38
2019-06-10T02:33:37.020Z,80.34
2019-06-10T02:36:18.215Z,80.26
2019-06-10T02:39:07.773Z,80.17
2019-06-10T02:41:44.808Z,80.06
2019-06-10T02:44:21.751Z,80.13
2019-06-10T02:47:09.015Z,80.19
2019-06-10T02:49:59.109Z,80.22
2019-06-10T02:52:32.987Z,80.22
2019-06-10T02:55:05.609Z,80.24
2019-06-10T02:57:40.280Z,80.27
2019-06-10T03:00:20.869Z,80.36
2019-06-10T03:02:55.749Z,80.55
2019-06-10T03:05:49.100Z,80.49
2019-06-10T03:08:27.449Z,80.54
2019-06-10T03:11:05.747Z,80.46
2019-06-10T03:13:45.177Z,80.34
2019-06-10T03:16:34.625Z,80.27
2019-06-10T03:19:07.399Z,80.16
2019-06-10T03:21:52.265Z,80.14
2019-06-10T03:24:25.350Z,80.14
2019-06-10T03:27:23.573Z,80.06
2019-06-10T03:30:14.779Z,80.01
2019-06-10T03:32:48.858Z,79.98
2019-06-10T03:35:27.235Z,79.99
2019-06-10T03:38:06.334Z,79.96
2019-06-10T03:40:40.580Z,79.94
2019-06-10T03:43:23.812Z,79.89
2019-06-10T03:46:09.635Z,79.89
2019-06-10T03:49:13.296Z,79.91
2019-06-10T03:51:45.742Z,79.85
2019-06-10T03:54:19.282Z,79.82
2019-06-10T03:56:56.029Z,79.77
2019-06-10T03:59:39.095Z,79.77
2019-06-10T04:02:28.494Z,79.81
2019-06-10T04:05:46.337Z,79.78
2019-06-10T04:08:52.269Z,79.71
2019-06-10T04:11:42.848Z,79.79
2019-06-10T04:14:25.076Z,79.72
2019-06-10T04:17:08.574Z,79.46
2019-06-10T04:20:09.379Z,79.60
2019-06-10T04:22:37.765Z,79.86
2019-06-10T04:25:11.996Z,79.95
2019-06-10T04:27:42.438Z,79.93
2019-06-10T04:30:16.327Z,79.94
2019-06-10T04:32:47.528Z,79.76
2019-06-10T04:35:24.383Z,79.50
2019-06-10T04:37:57.876Z,79.36
2019-06-10T04:40:44.906Z,79.12
2019-06-10T04:43:20.514Z,78.97
2019-06-10T04:45:54.600Z,78.77
2019-06-10T04:48:28.093Z,78.70
2019-06-10T04:51:08.335Z,78.61
2019-06-10T04:53:52.432Z,78.76
2019-06-10T04:56:42.881Z,78.88
2019-06-10T04:59:15.756Z,78.89
2019-06-10T05:01:53.061Z,78.83
2019-06-10T05:04:32.826Z,78.69
2019-06-10T05:07:13.851Z,78.40
2019-06-10T05:12:52.594Z,78.49
2019-06-10T05:15:48.807Z,78.34
2019-06-10T05:18:22.561Z,78.17
2019-06-10T05:20:58.779Z,77.94
2019-06-10T05:23:33.225Z,77.48
2019-06-10T05:26:06.598Z,77.06
2019-06-10T05:28:43.520Z,76.95
2019-06-10T05:31:15.055Z,76.68
2019-06-10T05:33:48.886Z,76.57
2019-06-10T05:36:20.618Z,76.22
2019-06-10T05:38:52.717Z,75.98
2019-06-10T05:41:34.827Z,75.83
2019-06-10T05:44:25.238Z,75.40
2019-06-10T05:46:58.729Z,74.79
2019-06-10T05:49:36.279Z,74.30
2019-06-10T05:52:12.629Z,73.84
2019-06-10T05:54:46.204Z,73.52
2019-06-10T05:57:33.503Z,73.53
2019-06-10T06:00:14.625Z,73.31
2019-06-10T06:05:45.535Z,72.88
2019-06-10T06:08:15.850Z,72.77
2019-06-10T06:10:59.759Z,72.54
2019-06-10T06:13:34.171Z,71.85
2019-06-10T06:16:23.082Z,72.04
2019-06-10T06:18:58.927Z,72.29
2019-06-10T06:21:34.961Z,72.69
2019-06-10T06:24:04.819Z,72.68
2019-06-10T06:26:59.500Z,72.32
2019-06-10T06:29:39.921Z,72.34
2019-06-10T06:32:13.058Z,72.20
2019-06-10T06:34:43.365Z,72.38
2019-06-10T06:37:17.866Z,72.03
2019-06-10T06:39:52.316Z,71.53
2019-06-10T06:42:23.032Z,71.31
2019-06-10T06:45:03.063Z,71.66
2019-06-10T06:47:35.700Z,71.52
2019-06-10T06:50:07.874Z,71.71
2019-06-10T06:53:12.549Z,71.29
2019-06-10T06:55:15.766Z,70.66
2019-06-10T06:57:53.356Z,70.71
2019-06-10T07:00:53.150Z,70.80
2019-06-10T07:03:12.556Z,71.03
2019-06-10T07:06:13.166Z,70.85
2019-06-10T07:09:00.225Z,70.48
2019-06-10T07:11:33.955Z,70.38
2019-06-10T07:14:05.276Z,70.25
2019-06-10T07:16:37.780Z,70.29
2019-06-10T07:19:08.948Z,70.33
2019-06-10T07:22:11.395Z,69.50
2019-06-10T07:24:36.033Z,69.89
2019-06-10T07:27:05.960Z,69.78
2019-06-10T07:29:54.393Z,69.46
2019-06-10T07:32:25.455Z,69.11
2019-06-10T07:34:55.738Z,69.07
2019-06-10T07:37:34.935Z,66.10
2019-06-10T07:40:25.667Z,63.63
2019-06-10T07:43:02.413Z,62.33
2019-06-10T07:45:33.817Z,61.11
2019-06-10T07:48:04.316Z,60.24
2019-06-10T07:50:36.532Z,58.23
2019-06-10T07:53:07.923Z,58.21
2019-06-10T07:55:41.348Z,58.27
2019-06-10T07:58:15.862Z,60.27
2019-06-10T08:00:48.498Z,62.15
2019-06-10T08:03:18.585Z,60.35
2019-06-10T08:05:52.478Z,59.81
2019-06-10T08:08:32.854Z,60.28
2019-06-10T08:11:05.723Z,59.51
2019-06-10T08:13:47.967Z,58.01
2019-06-10T08:16:18.359Z,58.52
2019-06-10T08:19:15.952Z,58.66
2019-06-10T08:21:22.696Z,58.40
2019-06-10T08:23:54.057Z,57.66
2019-06-10T08:26:23.423Z,56.89
2019-06-10T08:28:53.307Z,56.46
2019-06-10T08:31:22.931Z,55.53
2019-06-10T08:33:53.353Z,55.14
2019-06-10T08:36:23.596Z,56.72
2019-06-10T08:38:53.383Z,56.74
2019-06-10T08:41:23.312Z,56.73
2019-06-10T08:43:53.155Z,56.70
2019-06-10T08:46:22.842Z,56.72
2019-06-10T08:48:52.742Z,56.69
2019-06-10T08:51:23.713Z,56.95
2019-06-10T08:53:53.547Z,56.29
2019-06-10T08:56:23.005Z,55.77
2019-06-10T08:58:54.027Z,55.73
2019-06-10T09:01:23.757Z,56.03
2019-06-10T09:03:53.888Z,57.02
2019-06-10T09:06:23.421Z,55.95
2019-06-10T09:08:54.557Z,56.30
2019-06-10T09:11:24.810Z,56.03
2019-06-10T09:13:55.062Z,55.74
2019-06-10T09:16:26.049Z,55.26
2019-06-10T09:18:59.051Z,54.10
2019-06-10T09:21:35.096Z,53.98
2019-06-10T09:24:13.043Z,53.53
2019-06-10T09:26:54.820Z,52.62
2019-06-10T09:29:32.732Z,54.48
2019-06-10T09:32:03.531Z,55.64
2019-06-10T09:34:41.376Z,55.09
2019-06-10T09:37:16.497Z,56.02
2019-06-10T09:39:59.229Z,55.19
2019-06-10T09:42:33.299Z,54.61
2019-06-10T09:45:03.712Z,53.74
2019-06-10T09:47:44.502Z,53.36
2019-06-10T09:50:16.104Z,52.99
2019-06-10T09:52:50.446Z,53.30
2019-06-10T09:55:23.345Z,53.83
2019-06-10T09:57:59.968Z,53.40
2019-06-10T10:00:48.499Z,52.97
2019-06-10T10:03:16.635Z,51.30
2019-06-10T10:05:59.444Z,51.19
2019-06-10T10:08:32.703Z,51.18
2019-06-10T10:11:03.264Z,48.64
2019-06-10T10:13:35.336Z,47.89
2019-06-10T10:16:10.275Z,46.56
2019-06-10T10:18:47.276Z,44.23
2019-06-10T10:21:57.141Z,44.47
2019-06-10T10:24:33.447Z,44.14
2019-06-10T10:27:09.475Z,44.38
2019-06-10T10:29:47.162Z,45.46
2019-06-10T10:32:23.162Z,44.99
2019-06-10T10:34:56.577Z,44.70
2019-06-10T10:37:35.866Z,44.13
2019-06-10T10:40:07.588Z,44.09
2019-06-10T10:42:44.997Z,43.00
2019-06-10T10:45:13.325Z,42.93
2019-06-10T10:47:47.136Z,42.33
2019-06-10T10:50:22.522Z,41.79
2019-06-10T10:52:55.099Z,42.16
2019-06-10T10:55:28.183Z,42.53
2019-06-10T10:58:19.853Z,40.12
2019-06-10T11:00:57.680Z,39.24
2019-06-10T11:03:26.258Z,38.87
2019-06-10T11:06:00.931Z,36.76
2019-06-10T11:08:35.297Z,37.08
2019-06-10T11:11:13.599Z,37.74
2019-06-10T11:13:47.380Z,38.74
2019-06-10T11:16:27.415Z,38.80
2019-06-10T11:19:02.549Z,38.79
2019-06-10T11:21:33.030Z,39.60
2019-06-10T11:24:04.836Z,40.04
2019-06-10T11:26:38.835Z,39.11
2019-06-10T11:29:11.236Z,39.13
2019-06-10T11:31:46.295Z,39.66
2019-06-10T11:34:23.475Z,41.36
2019-06-10T11:36:55.087Z,42.03
2019-06-10T11:39:26.699Z,42.47
2019-06-10T11:41:57.955Z,42.97
2019-06-10T11:44:33.974Z,42.59
2019-06-10T11:47:06.025Z,42.56
2019-06-10T11:49:36.284Z,42.85
2019-06-10T11:52:07.777Z,43.32
2019-06-10T11:54:53.654Z,43.38
2019-06-10T11:57:09.009Z,44.25
2019-06-10T11:59:39.144Z,44.21
2019-06-10T12:02:09.123Z,43.87
2019-06-10T12:04:39.042Z,43.45
2019-06-10T12:07:09.056Z,44.08
2019-06-10T12:09:44.175Z,44.56
2019-06-10T12:12:16.054Z,44.94
2019-06-10T12:14:46.005Z,44.83
2019-06-10T12:17:40.089Z,44.74
2019-06-10T12:19:56.480Z,43.72
2019-06-10T12:22:33.085Z,43.38
2019-06-10T12:25:30.537Z,43.22
2019-06-10T12:27:38.057Z,42.85
2019-06-10T12:30:14.201Z,42.92
2019-06-10T12:32:45.451Z,43.00
2019-06-10T12:41:23.206Z,41.56
2019-06-10T12:43:54.776Z,42.25
2019-06-10T12:46:26.658Z,41.97
2019-06-10T12:49:01.714Z,42.83
2019-06-10T12:51:34.049Z,42.45
2019-06-10T12:54:06.228Z,41.42
2019-06-10T12:56:42.358Z,40.24
2019-06-10T12:59:18.027Z,36.99
2019-06-10T13:01:52.936Z,37.45
2019-06-10T13:04:22.173Z,37.91
2019-06-10T13:06:55.967Z,37.41
2019-06-10T13:09:34.384Z,37.44
2019-06-10T13:12:05.379Z,36.96
2019-06-10T13:14:36.793Z,36.11
2019-06-10T13:17:15.972Z,35.35
2019-06-10T13:19:47.472Z,36.01
2019-06-10T13:22:19.805Z,37.35
2019-06-10T13:24:53.564Z,37.87
2019-06-10T13:27:23.689Z,37.89
2019-06-10T13:29:59.893Z,38.06
2019-06-10T13:32:32.460Z,39.39
2019-06-10T13:35:12.458Z,38.66
2019-06-10T13:37:45.263Z,38.49
2019-06-10T13:40:26.369Z,40.07
2019-06-10T13:42:57.939Z,40.54
2019-06-10T13:45:34.523Z,41.68
2019-06-10T13:48:11.533Z,41.54
2019-06-10T13:50:42.232Z,41.49
2019-06-10T13:53:14.180Z,41.64
2019-06-10T13:55:47.088Z,41.48
2019-06-10T13:58:23.182Z,41.83
2019-06-10T14:01:04.053Z,41.63
2019-06-10T14:03:35.557Z,41.39
2019-06-10T14:06:32.325Z,41.88
2019-06-10T14:08:43.821Z,42.29
2019-06-10T14:11:16.145Z,42.36
2019-06-10T14:13:45.813Z,42.11
2019-06-10T14:16:16.277Z,41.76
2019-06-10T14:18:56.165Z,41.38
2019-06-10T14:21:33.076Z,41.79
2019-06-10T14:24:06.290Z,42.03
2019-06-10T14:26:48.639Z,41.45
2019-06-10T14:29:18.391Z,40.75
2019-06-10T14:31:58.931Z,40.50
2019-06-10T14:34:34.438Z,40.10
2019-06-10T14:37:07.730Z,39.92
2019-06-10T14:39:52.923Z,39.84
2019-06-10T14:42:32.205Z,39.35
2019-06-10T14:45:06.695Z,39.06
2019-06-10T14:47:36.748Z,38.93
2019-06-10T14:50:08.751Z,38.11
2019-06-10T14:52:38.540Z,38.18
2019-06-10T14:55:09.305Z,37.88
2019-06-10T14:57:42.615Z,38.49
2019-06-10T15:00:16.119Z,38.61
2019-06-10T15:02:43.964Z,38.04
2019-06-10T15:05:16.113Z,38.23
2019-06-10T15:07:46.602Z,38.18
2019-06-10T15:10:17.886Z,37.74
2019-06-10T15:12:48.820Z,37.21
2019-06-10T15:15:20.438Z,36.97
2019-06-10T15:17:52.489Z,36.74
2019-06-10T15:20:22.762Z,36.42
2019-06-10T15:22:52.859Z,36.22
2019-06-10T15:25:27.552Z,36.01
2019-06-10T15:27:54.675Z,36.17
2019-06-10T15:30:28.077Z,36.79
2019-06-10T15:33:02.881Z,37.25
2019-06-10T15:35:34.562Z,37.33
2019-06-10T15:38:05.418Z,37.83
2019-06-10T15:40:35.240Z,38.38
2019-06-10T15:43:09.623Z,38.48
2019-06-10T15:45:45.576Z,38.51
2019-06-10T15:48:18.840Z,38.81
2019-06-10T15:50:52.103Z,39.51
2019-06-10T15:53:25.392Z,39.67
2019-06-10T15:56:18.220Z,39.50
2019-06-10T15:58:26.815Z,39.92
2019-06-10T16:01:02.552Z,39.96
2019-06-10T16:03:33.066Z,39.88
2019-06-10T16:06:03.318Z,40.04
2019-06-10T16:08:33.576Z,40.00
2019-06-10T16:11:03.374Z,39.32
2019-06-10T16:13:33.035Z,38.50
2019-06-10T16:16:03.621Z,38.79
2019-06-10T16:18:37.763Z,38.82
2019-06-10T16:21:15.107Z,39.03
2019-06-10T16:23:53.398Z,39.10
2019-06-10T16:26:36.469Z,38.74
2019-06-10T16:29:08.696Z,38.04
2019-06-10T16:31:42.709Z,38.43
2019-06-10T16:34:12.913Z,38.17
2019-06-10T16:36:45.287Z,38.15
2019-06-10T16:39:19.015Z,38.25
2019-06-10T16:41:54.181Z,38.35
2019-06-10T16:44:34.642Z,38.90
2019-06-10T16:47:05.178Z,38.75
2019-06-10T16:49:38.565Z,39.49
2019-06-10T16:52:09.143Z,39.83
2019-06-10T16:54:41.938Z,39.74
2019-06-10T16:57:27.275Z,39.99
2019-06-10T16:59:57.081Z,40.29
2019-06-10T17:02:30.075Z,40.15
2019-06-10T17:05:03.154Z,40.22
2019-06-10T17:07:34.198Z,40.05
2019-06-10T17:10:06.643Z,40.30
2019-06-10T17:12:38.837Z,40.62
2019-06-10T17:15:12.900Z,40.67
2019-06-10T17:17:45.688Z,40.66
2019-06-10T17:20:23.598Z,41.27
2019-06-10T17:22:54.412Z,41.62
2019-06-10T17:25:26.908Z,42.15
2019-06-10T17:28:15.135Z,42.39
2019-06-10T17:30:30.964Z,42.12
2019-06-10T17:33:04.238Z,42.25
2019-06-10T17:35:36.830Z,42.61
2019-06-10T17:38:12.216Z,42.41
2019-06-10T17:40:44.675Z,42.47
2019-06-10T17:43:14.224Z,42.27
2019-06-10T17:45:44.468Z,42.07
2019-06-10T17:48:16.500Z,41.67
2019-06-10T17:50:52.273Z,41.40
2019-06-10T17:53:24.613Z,40.24
2019-06-10T17:55:59.333Z,39.52
2019-06-10T17:58:43.355Z,38.24
2019-06-10T18:01:04.099Z,38.04
2019-06-10T18:03:37.757Z,37.79
2019-06-10T18:06:09.330Z,37.29
2019-06-10T18:08:47.555Z,37.07
2019-06-10T18:11:18.494Z,36.92
2019-06-10T18:13:56.700Z,36.41
2019-06-10T18:16:28.262Z,36.60
2019-06-10T18:18:59.172Z,37.02
2019-06-10T18:21:34.706Z,37.02
2019-06-10T18:24:08.466Z,37.90
2019-06-10T18:26:44.874Z,38.57
2019-06-10T18:29:22.792Z,39.21
2019-06-10T18:31:55.010Z,39.62
2019-06-10T18:34:25.689Z,39.91
2019-06-10T18:36:59.084Z,40.01
2019-06-10T18:39:59.515Z,40.04
2019-06-10T18:42:33.135Z,40.28
2019-06-10T18:45:04.805Z,40.01
2019-06-10T18:47:37.264Z,39.06
2019-06-10T18:50:09.232Z,38.53
2019-06-10T18:52:43.132Z,38.63
2019-06-10T18:55:12.707Z,38.44
2019-06-10T18:57:45.426Z,38.60
2019-06-10T19:00:15.672Z,38.83
2019-06-10T19:02:46.086Z,39.10
2019-06-10T19:05:17.420Z,39.61
2019-06-10T19:07:52.888Z,40.10
2019-06-10T19:10:24.185Z,40.15
2019-06-10T19:13:02.331Z,40.52
2019-06-10T19:15:31.904Z,41.01
2019-06-10T19:18:06.478Z,41.22
2019-06-10T19:20:45.266Z,41.50
2019-06-10T19:23:18.191Z,41.56
2019-06-10T19:26:05.105Z,41.84
2019-06-10T19:28:38.757Z,42.02
2019-06-10T19:31:11.200Z,42.28
2019-06-10T19:33:45.606Z,42.54
2019-06-10T19:36:19.717Z,42.75
2019-06-10T19:38:50.003Z,43.01
2019-06-10T19:41:22.397Z,42.84
2019-06-10T19:43:56.070Z,42.73
2019-06-10T19:46:27.926Z,42.87
2019-06-10T19:49:03.263Z,42.95
2019-06-10T19:51:48.977Z,42.94
2019-06-10T19:54:19.757Z,43.02
2019-06-10T19:56:52.340Z,43.08
2019-06-10T19:59:28.099Z,43.20
2019-06-10T20:01:59.094Z,43.34
2019-06-10T20:04:35.918Z,43.50
2019-06-10T20:07:20.136Z,43.59
2019-06-10T20:09:52.222Z,43.77
2019-06-10T20:12:25.825Z,43.98
2019-06-10T20:14:56.991Z,44.20
2019-06-10T20:17:32.770Z,44.47
2019-06-10T20:20:09.228Z,44.83
2019-06-10T20:22:43.614Z,45.07
2019-06-10T20:25:17.280Z,45.32
2019-06-10T20:27:59.347Z,45.47
2019-06-10T20:30:33.240Z,45.57
2019-06-10T20:33:05.858Z,45.63
2019-06-10T20:35:58.673Z,45.54
2019-06-10T20:38:38.487Z,45.82
2019-06-10T20:41:12.701Z,46.09
2019-06-10T20:43:44.382Z,46.30
2019-06-10T20:46:18.876Z,46.47
2019-06-10T20:48:54.570Z,46.72
2019-06-10T20:51:27.528Z,46.73
2019-06-10T20:54:02.632Z,46.83
2019-06-10T20:56:41.091Z,47.13
2019-06-10T20:59:13.260Z,47.43
2019-06-10T21:01:49.155Z,47.74
2019-06-10T21:04:27.551Z,48.01
2019-06-10T21:07:05.111Z,48.10
2019-06-10T21:09:39.759Z,48.35
2019-06-10T21:12:13.020Z,48.50
2019-06-10T21:14:45.675Z,48.75
2019-06-10T21:17:18.988Z,48.98
2019-06-10T21:19:53.760Z,49.28
2019-06-10T21:22:47.531Z,49.44
2019-06-10T21:25:24.643Z,49.67
2019-06-10T21:28:02.740Z,49.85
2019-06-10T21:30:49.658Z,49.95
2019-06-10T21:33:43.799Z,50.00
2019-06-10T21:36:18.833Z,49.78
2019-06-10T21:38:56.894Z,49.71
2019-06-10T21:41:37.007Z,49.36
2019-06-10T21:44:14.997Z,49.28
2019-06-10T21:46:50.329Z,49.17
2019-06-10T21:49:28.521Z,48.88
2019-06-10T21:52:02.819Z,48.75
2019-06-10T21:57:45.638Z,48.74
2019-06-10T22:00:52.047Z,48.75
2019-06-10T22:03:12.545Z,49.11
2019-06-10T22:06:06.460Z,49.32
2019-06-10T22:08:50.058Z,49.46
2019-06-10T22:11:31.365Z,49.50
2019-06-10T22:14:17.097Z,49.79
2019-06-10T22:16:52.907Z,49.90
2019-06-10T22:19:26.562Z,50.02
2019-06-10T22:22:18.437Z,50.11
2019-06-10T22:24:53.620Z,50.28
2019-06-10T22:27:47.848Z,50.52
2019-06-10T22:30:20.074Z,50.87
2019-06-10T22:33:06.830Z,51.05
2019-06-10T22:36:06.024Z,51.23
2019-06-10T22:38:43.018Z,51.25
2019-06-10T22:41:22.556Z,51.27
2019-06-10T22:43:55.780Z,51.38
2019-06-10T22:46:32.196Z,51.39
2019-06-10T22:49:05.196Z,51.41
2019-06-10T22:51:42.874Z,51.64
2019-06-10T22:54:21.182Z,51.71
2019-06-10T22:56:58.153Z,51.78
2019-06-10T22:59:48.649Z,51.87
2019-06-10T23:05:33.102Z,52.10
2019-06-10T23:08:12.605Z,52.21
2019-06-10T23:11:03.311Z,52.48
2019-06-10T23:13:50.637Z,52.75
2019-06-10T23:16:23.888Z,52.88
2019-06-10T23:18:59.874Z,53.03
2019-06-10T23:21:35.897Z,53.15
2019-06-10T23:24:13.465Z,53.18
2019-06-10T23:26:53.764Z,53.26
2019-06-10T23:29:36.132Z,53.22
2019-06-10T23:32:42.237Z,53.25
2019-06-10T23:35:32.177Z,53.53
2019-06-10T23:38:08.376Z,53.59
2019-06-10T23:41:01.503Z,53.68
2019-06-10T23:43:42.338Z,53.70
2019-06-10T23:46:38.351Z,53.41
2019-06-10T23:49:35.965Z,53.50
2019-06-10T23:52:08.019Z,53.50
2019-06-10T23:58:17.794Z,53.60
